createdAt,value
2019-04-07T00:00:40.992Z,27.60
2019-04-07T00:03:16.245Z,26.87
2019-04-07T00:05:51.625Z,26.77
2019-04-07T00:08:27.360Z,27.20
2019-04-07T00:11:02.990Z,30.03
2019-04-07T00:13:38.393Z,28.17
2019-04-07T00:16:13.609Z,28.63
2019-04-07T00:18:48.718Z,29.23
2019-04-07T00:21:24.072Z,28.70
2019-04-07T00:24:01.742Z,28.00
2019-04-07T00:26:35.911Z,28.90
2019-04-07T00:29:11.053Z,27.40
2019-04-07T00:31:46.125Z,26.93
2019-04-07T00:34:22.113Z,28.10
2019-04-07T00:36:57.263Z,26.97
2019-04-07T00:39:32.643Z,29.47
2019-04-07T00:42:08.157Z,26.90
2019-04-07T00:44:43.349Z,27.17
2019-04-07T00:47:18.604Z,28.23
2019-04-07T00:49:53.751Z,27.87
2019-04-07T00:52:29.536Z,27.57
2019-04-07T00:55:09.954Z,29.40
2019-04-07T00:57:45.625Z,28.20
2019-04-07T01:00:23.671Z,27.20
2019-04-07T01:02:59.385Z,28.10
2019-04-07T01:05:38.557Z,27.83
2019-04-07T01:08:11.823Z,28.77
2019-04-07T01:10:47.023Z,29.03
2019-04-07T01:13:22.147Z,28.87
2019-04-07T01:15:57.199Z,28.87
2019-04-07T01:18:35.549Z,28.23
2019-04-07T01:21:10.653Z,27.37
2019-04-07T01:23:45.631Z,29.37
2019-04-07T01:26:20.650Z,28.17
2019-04-07T01:28:55.650Z,29.37
2019-04-07T01:31:30.656Z,28.27
2019-04-07T01:34:05.920Z,30.97
2019-04-07T01:36:41.314Z,28.53
2019-04-07T01:39:16.870Z,27.00
2019-04-07T01:42:07.942Z,31.77
2019-04-07T01:45:11.523Z,30.20
2019-04-07T01:48:06.098Z,30.77
2019-04-07T01:50:58.179Z,30.70
2019-04-07T01:53:53.192Z,29.97
2019-04-07T01:56:50.090Z,29.57
2019-04-07T01:59:44.346Z,29.97
2019-04-07T02:02:45.506Z,31.63
2019-04-07T02:05:58.664Z,32.37
2019-04-07T02:08:46.374Z,32.60
2019-04-07T02:11:49.583Z,31.43
2019-04-07T02:14:40.947Z,32.17
2019-04-07T02:17:50.657Z,32.40
2019-04-07T02:21:14.313Z,30.53
2019-04-07T02:24:10.219Z,31.57
2019-04-07T02:27:02.886Z,33.33
2019-04-07T02:30:14.759Z,30.87
2019-04-07T02:33:08.511Z,31.43
2019-04-07T02:36:16.039Z,31.63
2019-04-07T02:38:50.438Z,30.73
2019-04-07T02:41:35.094Z,32.80
2019-04-07T02:44:31.991Z,32.37
2019-04-07T02:47:18.695Z,33.77
2019-04-07T02:50:10.766Z,32.47
2019-04-07T02:52:58.041Z,32.53
2019-04-07T02:55:52.587Z,32.93
2019-04-07T02:59:04.736Z,32.00
2019-04-07T03:01:53.121Z,33.03
2019-04-07T03:04:46.088Z,33.37
2019-04-07T03:07:43.118Z,30.43
2019-04-07T03:10:37.107Z,31.70
2019-04-07T03:13:46.514Z,31.67
2019-04-07T03:16:31.013Z,32.97
2019-04-07T03:19:15.151Z,31.57
2019-04-07T03:22:18.265Z,31.30
2019-04-07T03:25:18.484Z,31.27
2019-04-07T03:28:10.301Z,32.50
2019-04-07T03:31:14.746Z,31.70
2019-04-07T03:34:18.457Z,32.90
2019-04-07T03:37:25.635Z,31.23
2019-04-07T03:40:11.629Z,30.80
2019-04-07T03:43:23.952Z,32.70
2019-04-07T03:46:07.954Z,33.43
2019-04-07T03:48:48.221Z,34.63
2019-04-07T03:51:54.497Z,35.63
2019-04-07T03:54:50.935Z,35.60
2019-04-07T03:58:03.689Z,35.97
2019-04-07T04:01:37.126Z,36.53
2019-04-07T04:04:30.030Z,34.93
2019-04-07T04:07:31.304Z,34.77
2019-04-07T04:10:09.867Z,35.30
2019-04-07T04:13:02.302Z,37.00
2019-04-07T04:16:06.229Z,36.87
2019-04-07T04:18:42.614Z,36.47
2019-04-07T04:21:17.847Z,36.33
2019-04-07T04:23:53.090Z,36.63
2019-04-07T04:26:29.162Z,37.03
2019-04-07T04:29:05.783Z,37.00
2019-04-07T04:31:43.423Z,37.20
2019-04-07T04:34:19.175Z,37.23
2019-04-07T04:36:54.569Z,37.13
2019-04-07T04:39:29.705Z,35.97
2019-04-07T04:42:05.478Z,36.40
2019-04-07T04:44:41.018Z,37.37
2019-04-07T04:47:18.999Z,36.93
2019-04-07T04:49:56.190Z,37.53
2019-04-07T04:52:31.924Z,38.23
2019-04-07T04:55:07.414Z,35.27
2019-04-07T04:57:42.626Z,36.27
2019-04-07T05:00:20.239Z,37.33
2019-04-07T05:02:56.041Z,35.87
2019-04-07T05:05:31.121Z,36.90
2019-04-07T05:08:06.838Z,37.17
2019-04-07T05:10:41.993Z,35.27
2019-04-07T05:13:17.041Z,35.30
2019-04-07T05:15:52.197Z,34.63
2019-04-07T05:18:27.744Z,36.80
2019-04-07T05:21:03.130Z,37.57
2019-04-07T05:23:38.566Z,35.80
2019-04-07T05:26:13.740Z,34.90
2019-04-07T05:28:50.418Z,38.80
2019-04-07T05:31:25.860Z,35.57
2019-04-07T05:34:01.793Z,37.10
2019-04-07T05:36:36.976Z,36.97
2019-04-07T05:39:12.763Z,36.20
2019-04-07T05:41:48.341Z,35.00
2019-04-07T05:44:24.382Z,32.43
2019-04-07T05:47:03.570Z,34.40
2019-04-07T05:49:38.921Z,34.10
2019-04-07T05:52:14.951Z,33.57
2019-04-07T05:54:52.437Z,36.30
2019-04-07T05:57:30.873Z,34.73
2019-04-07T06:00:06.573Z,35.20
2019-04-07T06:02:42.824Z,32.77
2019-04-07T06:05:18.738Z,31.93
2019-04-07T06:07:54.503Z,32.50
2019-04-07T06:10:30.006Z,32.57
2019-04-07T06:13:06.094Z,33.83
2019-04-07T06:15:41.219Z,32.80
2019-04-07T06:18:16.357Z,29.93
2019-04-07T06:20:52.030Z,31.63
2019-04-07T06:23:29.493Z,32.70
2019-04-07T06:26:08.898Z,31.80
2019-04-07T06:28:41.283Z,31.23
2019-04-07T06:31:17.377Z,30.20
2019-04-07T06:33:55.038Z,30.20
2019-04-07T06:36:29.666Z,32.07
2019-04-07T06:39:08.257Z,28.80
2019-04-07T06:41:44.351Z,29.20
2019-04-07T06:44:22.173Z,30.57
2019-04-07T06:47:16.724Z,30.43
2019-04-07T06:50:18.988Z,32.60
2019-04-07T06:53:17.325Z,31.10
2019-04-07T06:56:03.881Z,30.97
2019-04-07T06:58:56.552Z,31.20
2019-04-07T07:01:39.714Z,32.17
2019-04-07T07:04:35.556Z,30.83
2019-04-07T07:07:20.683Z,30.37
2019-04-07T07:10:09.474Z,30.20
2019-04-07T07:13:07.518Z,29.80
2019-04-07T07:15:56.265Z,28.70
2019-04-07T07:18:40.332Z,29.83
2019-04-07T07:21:46.812Z,30.30
2019-04-07T07:24:25.101Z,29.57
2019-04-07T07:26:58.723Z,28.93
2019-04-07T07:29:35.281Z,28.80
2019-04-07T07:32:10.354Z,28.73
2019-04-07T07:34:48.680Z,29.07
2019-04-07T07:37:26.150Z,28.27
2019-04-07T07:40:02.253Z,28.73
2019-04-07T07:42:37.953Z,28.97
2019-04-07T07:45:14.026Z,27.00
2019-04-07T07:47:53.229Z,27.63
2019-04-07T07:50:26.645Z,26.90
2019-04-07T07:53:02.584Z,27.93
2019-04-07T07:55:38.574Z,27.90
2019-04-07T07:58:14.015Z,26.13
2019-04-07T08:00:50.610Z,27.50
2019-04-07T08:03:27.267Z,28.30
2019-04-07T08:06:06.366Z,28.30
2019-04-07T08:08:39.632Z,28.37
2019-04-07T08:11:17.521Z,28.90
2019-04-07T08:13:53.595Z,27.23
2019-04-07T08:16:31.071Z,28.23
2019-04-07T08:19:09.259Z,28.53
2019-04-07T08:21:45.419Z,27.73
2019-04-07T08:24:21.834Z,27.70
2019-04-07T08:26:58.857Z,29.07
2019-04-07T08:29:37.143Z,26.70
2019-04-07T08:32:12.154Z,26.80
2019-04-07T08:34:47.346Z,28.77
2019-04-07T08:37:23.342Z,27.57
2019-04-07T08:39:59.387Z,28.13
2019-04-07T08:42:34.720Z,26.30
2019-04-07T08:45:10.093Z,26.93
2019-04-07T08:47:47.355Z,26.23
2019-04-07T08:50:27.720Z,26.23
2019-04-07T08:53:02.127Z,25.80
2019-04-07T08:55:37.276Z,25.93
2019-04-07T08:58:23.603Z,26.00
2019-04-07T09:00:53.067Z,24.33
2019-04-07T09:03:30.554Z,26.10
2019-04-07T09:06:06.266Z,24.17
2019-04-07T09:08:41.645Z,25.87
2019-04-07T09:11:21.659Z,25.03
2019-04-07T09:13:56.937Z,25.03
2019-04-07T09:16:39.484Z,24.30
2019-04-07T09:19:36.808Z,24.00
2019-04-07T09:22:29.820Z,25.43
2019-04-07T09:25:39.992Z,24.00
2019-04-07T09:28:23.997Z,23.90
2019-04-07T09:31:23.313Z,24.40
2019-04-07T09:34:30.260Z,24.97
2019-04-07T09:37:31.026Z,22.70
2019-04-07T09:40:32.862Z,22.90
2019-04-07T09:43:19.937Z,23.17
2019-04-07T09:46:16.608Z,22.87
2019-04-07T09:49:13.529Z,22.40
2019-04-07T09:52:03.470Z,20.70
2019-04-07T09:55:01.257Z,19.53
2019-04-07T09:57:46.145Z,19.90
2019-04-07T10:00:45.441Z,19.80
2019-04-07T10:03:46.378Z,17.57
2019-04-07T10:06:32.351Z,18.10
2019-04-07T10:09:25.675Z,16.73
2019-04-07T10:12:38.120Z,17.17
2019-04-07T10:15:32.845Z,18.07
2019-04-07T10:18:34.054Z,17.17
2019-04-07T10:21:28.621Z,16.50
2019-04-07T10:24:32.540Z,17.20
2019-04-07T10:27:37.092Z,16.30
2019-04-07T10:30:27.688Z,17.00
2019-04-07T10:33:38.106Z,15.50
2019-04-07T10:36:42.355Z,13.63
2019-04-07T10:39:29.426Z,13.20
2019-04-07T10:42:35.913Z,12.90
2019-04-07T10:45:29.643Z,14.50
2019-04-07T10:48:24.858Z,13.60
2019-04-07T10:51:42.807Z,13.13
2019-04-07T10:54:47.266Z,12.37
2019-04-07T10:57:39.972Z,10.33
2019-04-07T11:00:33.430Z,10.07
2019-04-07T11:03:30.031Z,10.17
2019-04-07T11:06:24.758Z,10.50
2019-04-07T11:09:21.154Z,11.00
2019-04-07T11:12:23.564Z,11.40
2019-04-07T11:15:20.316Z,11.93
2019-04-07T11:18:19.056Z,11.40
2019-04-07T11:21:06.498Z,10.60
2019-04-07T11:23:55.511Z,11.80
2019-04-07T11:26:48.592Z,11.43
2019-04-07T11:29:49.647Z,11.00
2019-04-07T11:32:51.253Z,11.28
2019-04-07T11:35:36.925Z,11.00
2019-04-07T11:38:49.487Z,13.40
2019-04-07T11:41:31.673Z,11.40
2019-04-07T11:44:13.866Z,11.33
2019-04-07T11:47:14.237Z,11.27
2019-04-07T11:50:08.190Z,10.33
2019-04-07T11:52:49.383Z,11.93
2019-04-07T11:55:35.526Z,11.10
2019-04-07T11:58:45.162Z,10.80
2019-04-07T12:01:39.476Z,11.70
2019-04-07T12:04:48.993Z,10.83
2019-04-07T12:07:41.364Z,10.87
2019-04-07T12:10:53.504Z,11.40
2019-04-07T12:13:42.943Z,11.83
2019-04-07T12:16:35.000Z,10.80
2019-04-07T12:19:32.218Z,10.90
2019-04-07T12:22:18.296Z,10.70
2019-04-07T12:25:13.138Z,10.20
2019-04-07T12:28:15.869Z,10.10
2019-04-07T12:31:00.363Z,9.83
2019-04-07T12:36:52.991Z,10.20
2019-04-07T12:39:36.100Z,9.80
2019-04-07T12:42:20.327Z,9.40
2019-04-07T12:45:13.457Z,8.50
2019-04-07T12:48:19.708Z,9.00
2019-04-07T12:51:17.590Z,9.47
2019-04-07T12:54:11.788Z,8.20
2019-04-07T12:57:06.178Z,9.33
2019-04-07T12:59:56.116Z,9.00
2019-04-07T13:02:53.241Z,9.67
2019-04-07T13:05:36.646Z,10.30
2019-04-07T13:08:32.142Z,8.20
2019-04-07T13:11:25.456Z,8.70
2019-04-07T13:14:15.174Z,8.60
2019-04-07T13:17:01.701Z,8.50
2019-04-07T13:19:55.262Z,8.47
2019-04-07T13:23:01.940Z,8.40
2019-04-07T13:25:43.946Z,9.03
2019-04-07T13:28:41.783Z,9.37
2019-04-07T13:31:25.769Z,8.63
2019-04-07T13:34:20.025Z,8.70
2019-04-07T13:37:18.813Z,8.30
2019-04-07T13:40:12.973Z,9.07
2019-04-07T13:43:09.950Z,8.53
2019-04-07T13:45:55.831Z,8.83
2019-04-07T13:48:53.677Z,8.27
2019-04-07T13:54:56.915Z,8.20
2019-04-07T13:57:44.062Z,8.60
2019-04-07T14:00:42.945Z,8.60
2019-04-07T14:03:41.726Z,9.27
2019-04-07T14:06:46.463Z,8.60
2019-04-07T14:09:34.149Z,7.40
2019-04-07T14:12:23.780Z,8.87
2019-04-07T14:15:21.619Z,8.83
2019-04-07T14:18:11.302Z,9.43
2019-04-07T14:20:56.203Z,8.20
2019-04-07T14:24:02.533Z,7.90
2019-04-07T14:27:04.378Z,8.77
2019-04-07T14:29:55.917Z,7.73
2019-04-07T14:32:54.670Z,8.17
2019-04-07T14:35:39.058Z,8.17
2019-04-07T14:38:45.563Z,9.20
2019-04-07T14:41:31.259Z,8.77
2019-04-07T14:44:25.815Z,9.90
2019-04-07T14:47:21.901Z,9.00
2019-04-07T14:50:19.009Z,8.60
2019-04-07T14:53:13.252Z,8.80
2019-04-07T14:55:58.253Z,9.80
2019-04-07T14:58:53.769Z,9.40
2019-04-07T15:01:46.899Z,8.30
2019-04-07T15:04:29.129Z,8.30
2019-04-07T15:07:16.135Z,8.77
2019-04-07T15:09:59.828Z,9.10
2019-04-07T15:12:42.525Z,9.10
2019-04-07T15:15:17.639Z,8.13
2019-04-07T15:17:53.078Z,8.93
2019-04-07T15:20:28.285Z,8.60
2019-04-07T15:23:07.441Z,10.30
2019-04-07T15:25:45.784Z,8.83
2019-04-07T15:28:19.740Z,9.17
2019-04-07T15:30:55.611Z,9.40
2019-04-07T15:33:33.620Z,9.20
2019-04-07T15:36:09.126Z,8.63
2019-04-07T15:38:46.433Z,8.47
2019-04-07T15:41:22.236Z,7.20
2019-04-07T15:43:58.501Z,7.27
2019-04-07T15:46:35.458Z,7.23
2019-04-07T15:49:12.671Z,7.00
2019-04-07T15:51:48.783Z,6.90
2019-04-07T15:54:25.407Z,6.90
2019-04-07T15:57:00.793Z,6.73
2019-04-07T15:59:35.943Z,6.87
2019-04-07T16:02:12.158Z,7.13
2019-04-07T16:04:48.091Z,7.50
2019-04-07T16:07:23.717Z,7.07
2019-04-07T16:09:59.742Z,6.70
2019-04-07T16:12:44.911Z,6.10
2019-04-07T16:15:18.128Z,6.53
2019-04-07T16:17:53.243Z,6.17
2019-04-07T16:20:32.417Z,7.03
2019-04-07T16:23:05.503Z,6.30
2019-04-07T16:25:41.836Z,6.73
2019-04-07T16:28:18.817Z,7.13
2019-04-07T16:30:54.267Z,6.97
2019-04-07T16:33:34.103Z,6.93
2019-04-07T16:36:08.662Z,7.03
2019-04-07T16:38:44.354Z,7.80
2019-04-07T16:41:20.023Z,6.23
2019-04-07T16:43:55.098Z,5.80
2019-04-07T16:46:30.485Z,6.90
2019-04-07T16:49:11.506Z,6.90
2019-04-07T16:51:47.318Z,6.30
2019-04-07T16:54:23.387Z,6.80
2019-04-07T16:56:59.403Z,7.53
2019-04-07T16:59:40.733Z,6.63
2019-04-07T17:02:15.637Z,6.90
2019-04-07T17:04:51.521Z,7.00
2019-04-07T17:07:26.651Z,6.63
2019-04-07T17:10:03.493Z,7.20
2019-04-07T17:12:40.616Z,6.60
2019-04-07T17:15:15.790Z,6.53
2019-04-07T17:17:52.477Z,6.70
2019-04-07T17:20:33.375Z,6.77
2019-04-07T17:23:11.160Z,7.20
2019-04-07T17:25:47.086Z,7.60
2019-04-07T17:28:23.824Z,6.37
2019-04-07T17:30:59.923Z,6.90
2019-04-07T17:33:37.918Z,8.10
2019-04-07T17:36:17.576Z,7.50
2019-04-07T17:39:16.389Z,7.27
2019-04-07T17:41:52.005Z,7.37
2019-04-07T17:44:35.050Z,8.60
2019-04-07T17:47:35.460Z,8.53
2019-04-07T17:50:31.525Z,7.50
2019-04-07T17:53:28.577Z,9.07
2019-04-07T17:56:22.231Z,8.17
2019-04-07T17:59:17.137Z,8.93
2019-04-07T18:02:17.401Z,7.50
2019-04-07T18:05:10.620Z,7.83
2019-04-07T18:08:13.375Z,7.23
2019-04-07T18:11:17.657Z,8.17
2019-04-07T18:14:03.700Z,8.20
2019-04-07T18:17:04.695Z,7.23
2019-04-07T18:20:14.077Z,7.57
2019-04-07T18:23:13.729Z,8.50
2019-04-07T18:25:54.476Z,8.30
2019-04-07T18:28:34.913Z,7.90
2019-04-07T18:31:24.519Z,8.57
2019-04-07T18:34:27.279Z,8.57
2019-04-07T18:37:19.162Z,8.50
2019-04-07T18:40:11.995Z,8.30
2019-04-07T18:43:06.324Z,8.20
2019-04-07T18:45:52.642Z,8.70
2019-04-07T18:48:46.271Z,9.07
2019-04-07T18:51:37.121Z,8.80
2019-04-07T18:54:26.887Z,9.50
2019-04-07T18:57:21.725Z,8.90
2019-04-07T19:00:19.953Z,10.10
2019-04-07T19:03:18.506Z,9.57
2019-04-07T19:06:22.022Z,10.10
2019-04-07T19:09:11.166Z,10.13
2019-04-07T19:12:13.504Z,10.67
2019-04-07T19:15:23.700Z,9.97
2019-04-07T19:18:27.251Z,10.67
2019-04-07T19:21:31.925Z,9.93
2019-04-07T19:24:47.568Z,11.37
2019-04-07T19:27:46.489Z,10.30
2019-04-07T19:30:43.636Z,10.57
2019-04-07T19:33:42.148Z,10.30
2019-04-07T19:36:44.410Z,9.90
2019-04-07T19:39:26.357Z,11.30
2019-04-07T19:42:21.881Z,10.67
2019-04-07T19:45:05.878Z,11.33
2019-04-07T19:48:10.078Z,10.30
2019-04-07T19:51:01.923Z,9.90
2019-04-07T19:54:13.556Z,11.13
2019-04-07T19:57:06.597Z,11.30
2019-04-07T19:59:52.770Z,10.87
2019-04-07T20:03:07.665Z,10.30
2019-04-07T20:06:12.937Z,11.00
2019-04-07T20:09:13.034Z,11.30
2019-04-07T20:12:22.048Z,10.40
2019-04-07T20:15:17.620Z,11.50
2019-04-07T20:18:08.524Z,11.40
2019-04-07T20:20:57.506Z,11.33
2019-04-07T20:23:50.116Z,10.90
2019-04-07T20:26:56.726Z,10.90
2019-04-07T20:29:47.771Z,11.40
2019-04-07T20:32:41.011Z,11.47
2019-04-07T20:35:35.006Z,11.50
2019-04-07T20:38:28.947Z,10.60
2019-04-07T20:41:33.760Z,11.03
2019-04-07T20:44:33.908Z,12.30
2019-04-07T20:47:36.171Z,11.90
2019-04-07T20:50:22.524Z,11.80
2019-04-07T20:53:28.297Z,12.20
2019-04-07T20:56:14.400Z,11.23
2019-04-07T20:59:08.483Z,11.60
2019-04-07T21:02:05.545Z,11.50
2019-04-07T21:04:45.215Z,11.80
2019-04-07T21:07:47.073Z,12.80
2019-04-07T21:10:50.708Z,11.97
2019-04-07T21:13:43.044Z,13.07
2019-04-07T21:16:38.005Z,13.27
2019-04-07T21:19:23.296Z,12.30
2019-04-07T21:22:16.961Z,11.90
2019-04-07T21:25:09.798Z,12.60
2019-04-07T21:27:49.254Z,11.57
2019-04-07T21:30:47.056Z,12.27
2019-04-07T21:33:44.232Z,12.50
2019-04-07T21:36:41.721Z,12.10
2019-04-07T21:39:39.704Z,12.03
2019-04-07T21:42:27.395Z,13.90
2019-04-07T21:45:32.543Z,12.63
2019-04-07T21:48:23.886Z,12.10
2019-04-07T21:51:33.258Z,12.57
2019-04-07T21:54:30.731Z,12.30
2019-04-07T21:57:26.971Z,12.50
2019-04-07T22:00:21.169Z,13.53
2019-04-07T22:03:22.564Z,12.73
2019-04-07T22:06:14.892Z,12.90
2019-04-07T22:08:54.279Z,13.93
2019-04-07T22:11:30.453Z,12.43
2019-04-07T22:14:07.685Z,13.90
2019-04-07T22:16:43.868Z,12.80
2019-04-07T22:19:19.078Z,13.73
2019-04-07T22:21:56.573Z,12.73
2019-04-07T22:24:35.861Z,14.37
2019-04-07T22:27:09.544Z,13.43
2019-04-07T22:29:46.967Z,14.27
2019-04-07T22:32:24.088Z,13.60
2019-04-07T22:35:02.644Z,15.30
2019-04-07T22:37:38.089Z,13.23
2019-04-07T22:40:19.380Z,13.77
2019-04-07T22:42:54.600Z,13.87
2019-04-07T22:45:31.139Z,14.80
2019-04-07T22:48:08.226Z,13.53
2019-04-07T22:50:43.683Z,14.40
2019-04-07T22:53:22.442Z,14.27
2019-04-07T22:55:57.470Z,15.20
2019-04-07T22:58:34.366Z,13.60
2019-04-07T23:01:09.498Z,14.20
2019-04-07T23:03:46.342Z,14.77
2019-04-07T23:06:21.529Z,14.47
2019-04-07T23:08:57.349Z,14.90
2019-04-07T23:11:32.978Z,14.70
2019-04-07T23:14:09.454Z,14.87
2019-04-07T23:16:44.752Z,13.67
2019-04-07T23:19:19.866Z,14.33
2019-04-07T23:21:58.764Z,14.00
2019-04-07T23:24:34.955Z,13.77
2019-04-07T23:27:10.417Z,13.10
2019-04-07T23:29:46.384Z,16.60
2019-04-07T23:32:22.058Z,12.90
2019-04-07T23:34:57.648Z,14.70
2019-04-07T23:37:33.661Z,15.37
2019-04-07T23:40:10.655Z,14.87
2019-04-07T23:42:46.676Z,14.83
2019-04-07T23:45:25.338Z,15.47
2019-04-07T23:48:00.484Z,15.00
2019-04-07T23:50:39.575Z,16.03
2019-04-07T23:54:09.448Z,16.20
2019-04-07T23:56:47.563Z,14.17
2019-04-07T23:59:22.928Z,16.13
